Bilston, United Kingdom
Current Conditions -  °F | °C
As of 1:50 PM on Monday 22 Dec 2014 (Local Time) from EGBB Reporting Station
Broken Clouds Broken Clouds  
Wind Chill: 54°   Ceiling: 1600
Heat Index: 54°   Visibility: 6mi
Dew Point: 48°   Wind: 13mph
Humidity: 82%   Direction: 240°WSW
Pressure: 29.94"   Gusts: NA
Location:  52.56°N, 2.07°W
Report Text: EGBB 221350Z 24011KT 200V270 9999 BKN016 12/09 Q1014
Loading
Personal Weather Stations






























Interactive Weather Map New forecast layout! Learn more

10-Day Weather Forecast

Advertisements
Track Severe Weather on mobile